createdAt,value
2023-05-29T00:00:46.447Z,16.25
2023-05-29T00:01:46.741Z,16.25
2023-05-29T00:02:46.811Z,16.23
2023-05-29T00:03:47.100Z,16.22
2023-05-29T00:04:47.039Z,16.25
2023-05-29T00:05:47.174Z,16.25
2023-05-29T00:06:47.318Z,16.18
2023-05-29T00:07:47.495Z,16.22
2023-05-29T00:08:47.612Z,16.20
2023-05-29T00:09:48.533Z,16.22
2023-05-29T00:10:47.898Z,16.25
2023-05-29T00:11:48.054Z,16.23
2023-05-29T00:12:48.187Z,16.26
2023-05-29T00:13:48.350Z,16.25
2023-05-29T00:14:48.479Z,16.16
2023-05-29T00:15:48.645Z,16.18
2023-05-29T00:16:48.932Z,16.04
2023-05-29T00:17:48.950Z,16.08
2023-05-29T00:18:49.044Z,16.04
2023-05-29T00:19:49.191Z,16.02
2023-05-29T00:20:49.556Z,16.05
2023-05-29T00:21:49.503Z,16.04
2023-05-29T00:22:49.657Z,16.04
2023-05-29T00:23:49.850Z,15.87
2023-05-29T00:24:50.097Z,15.90
2023-05-29T00:25:50.191Z,15.94
2023-05-29T00:26:50.449Z,16.00
2023-05-29T00:27:50.669Z,15.98
2023-05-29T00:28:53.547Z,16.02
2023-05-29T00:29:50.875Z,16.04
2023-05-29T00:30:51.018Z,15.98
2023-05-29T00:31:51.214Z,16.04
2023-05-29T00:32:51.362Z,16.04
2023-05-29T00:33:51.432Z,16.04
2023-05-29T00:34:51.575Z,16.05
2023-05-29T00:35:51.757Z,16.05
2023-05-29T00:36:51.915Z,16.07
2023-05-29T00:37:51.993Z,16.09
2023-05-29T00:38:52.218Z,16.08
2023-05-29T00:39:52.290Z,16.05
2023-05-29T00:40:52.430Z,15.97
2023-05-29T00:41:52.599Z,15.92
2023-05-29T00:42:52.823Z,15.90
2023-05-29T00:43:52.986Z,15.87
2023-05-29T00:44:53.084Z,15.77
2023-05-29T00:45:53.276Z,15.78
2023-05-29T00:46:53.406Z,15.74
2023-05-29T00:47:53.607Z,15.78
2023-05-29T00:48:53.714Z,15.75
2023-05-29T00:49:53.879Z,15.74
2023-05-29T00:50:54.301Z,15.78
2023-05-29T00:51:54.183Z,15.74
2023-05-29T00:52:54.336Z,15.71
2023-05-29T00:53:54.527Z,15.74
2023-05-29T00:54:54.631Z,15.67
2023-05-29T00:55:54.816Z,15.64
2023-05-29T00:56:54.937Z,15.71
2023-05-29T00:57:55.103Z,15.64
2023-05-29T00:58:55.238Z,15.67
2023-05-29T00:59:55.410Z,15.61
2023-05-29T01:00:55.741Z,15.70
2023-05-29T01:01:55.704Z,15.64
2023-05-29T01:02:55.942Z,15.58
2023-05-29T01:03:55.983Z,15.66
2023-05-29T01:04:56.131Z,15.67
2023-05-29T01:05:56.298Z,15.74
2023-05-29T01:06:56.441Z,15.75
2023-05-29T01:07:56.593Z,15.83
2023-05-29T01:08:57.005Z,15.83
2023-05-29T01:09:56.897Z,15.85
2023-05-29T01:10:57.077Z,15.84
2023-05-29T01:11:57.210Z,15.70
2023-05-29T01:12:57.556Z,15.63
2023-05-29T01:13:57.495Z,15.70
2023-05-29T01:14:57.651Z,15.70
2023-05-29T01:15:57.837Z,15.61
2023-05-29T01:16:58.552Z,15.60
2023-05-29T01:17:58.274Z,15.61
2023-05-29T01:18:58.513Z,15.63
2023-05-29T01:19:58.636Z,15.57
2023-05-29T01:20:59.139Z,15.64
2023-05-29T01:21:59.053Z,15.67
2023-05-29T01:22:59.287Z,15.74
2023-05-29T01:23:59.441Z,15.73
2023-05-29T01:24:59.655Z,15.70
2023-05-29T01:25:59.864Z,15.77
2023-05-29T01:27:00.137Z,15.78
2023-05-29T01:28:00.250Z,15.80
2023-05-29T01:29:01.172Z,15.80
2023-05-29T01:30:00.639Z,15.77
2023-05-29T01:31:00.856Z,15.77
2023-05-29T01:32:01.186Z,15.71
2023-05-29T01:33:01.301Z,15.75
2023-05-29T01:34:01.417Z,15.73
2023-05-29T01:35:01.621Z,15.71
2023-05-29T01:36:01.841Z,15.70
2023-05-29T01:37:02.042Z,15.73
2023-05-29T01:38:02.245Z,15.77
2023-05-29T01:39:02.456Z,15.75
2023-05-29T01:40:02.646Z,15.74
2023-05-29T01:41:02.854Z,15.74
2023-05-29T01:42:03.042Z,15.74
2023-05-29T01:43:03.242Z,15.70
2023-05-29T01:44:03.445Z,15.74
2023-05-29T01:45:03.643Z,15.70
2023-05-29T01:46:03.873Z,15.58
2023-05-29T01:47:04.081Z,15.61
2023-05-29T01:48:04.239Z,15.61
2023-05-29T01:49:04.433Z,15.60
2023-05-29T01:50:04.666Z,15.57
2023-05-29T01:51:04.847Z,15.54
2023-05-29T01:52:05.052Z,15.57
2023-05-29T01:53:05.267Z,15.46
2023-05-29T01:54:05.456Z,15.51
2023-05-29T01:55:05.684Z,15.51
2023-05-29T01:56:05.907Z,15.47
2023-05-29T01:57:06.117Z,15.51
2023-05-29T01:58:06.326Z,15.49
2023-05-29T01:59:06.540Z,15.42
2023-05-29T02:00:06.757Z,15.49
2023-05-29T02:01:06.994Z,15.50
2023-05-29T02:02:07.192Z,15.50
2023-05-29T02:03:07.500Z,15.51
2023-05-29T02:04:07.676Z,15.57
2023-05-29T02:05:07.827Z,15.46
2023-05-29T02:06:08.094Z,15.51
2023-05-29T02:07:08.257Z,15.46
2023-05-29T02:08:08.471Z,15.51
2023-05-29T02:09:08.706Z,15.29
2023-05-29T02:10:08.883Z,15.36
2023-05-29T02:11:09.090Z,15.38
2023-05-29T02:12:10.077Z,15.38
2023-05-29T02:13:09.512Z,15.32
2023-05-29T02:14:09.726Z,15.32
2023-05-29T02:15:09.948Z,15.36
2023-05-29T02:16:10.182Z,15.33
2023-05-29T02:17:11.068Z,15.40
2023-05-29T02:18:10.659Z,15.40
2023-05-29T02:19:10.821Z,15.43
2023-05-29T02:20:11.090Z,15.45
2023-05-29T02:21:11.318Z,15.45
2023-05-29T02:22:11.464Z,15.43
2023-05-29T02:23:11.674Z,15.42
2023-05-29T02:24:11.890Z,15.38
2023-05-29T02:25:12.169Z,15.36
2023-05-29T02:26:12.368Z,15.40
2023-05-29T02:27:12.517Z,15.42
2023-05-29T02:28:12.746Z,15.43
2023-05-29T02:29:12.981Z,15.42
2023-05-29T02:30:13.192Z,15.45
2023-05-29T02:31:13.404Z,15.33
2023-05-29T02:32:13.676Z,15.26
2023-05-29T02:33:13.838Z,15.33
2023-05-29T02:34:14.049Z,15.36
2023-05-29T02:35:14.273Z,15.17
2023-05-29T02:36:14.522Z,15.17
2023-05-29T02:37:14.687Z,15.12
2023-05-29T02:38:14.909Z,15.11
2023-05-29T02:39:15.270Z,15.04
2023-05-29T02:40:15.360Z,15.15
2023-05-29T02:41:15.620Z,15.15
2023-05-29T02:42:15.811Z,15.11
2023-05-29T02:43:16.048Z,15.21
2023-05-29T02:44:16.284Z,15.21
2023-05-29T02:45:16.526Z,15.21
2023-05-29T02:46:16.800Z,15.08
2023-05-29T02:47:16.951Z,15.09
2023-05-29T02:48:17.171Z,15.17
2023-05-29T02:49:17.384Z,15.12
2023-05-29T02:50:17.597Z,15.06
2023-05-29T02:51:17.802Z,15.14
2023-05-29T02:52:18.046Z,15.11
2023-05-29T02:53:18.253Z,15.17
2023-05-29T02:54:18.530Z,15.17
2023-05-29T02:55:18.655Z,15.18
2023-05-29T02:56:18.879Z,15.15
2023-05-29T02:57:19.096Z,15.21
2023-05-29T02:58:19.311Z,15.19
2023-05-29T02:59:19.547Z,15.18
2023-05-29T03:00:22.585Z,15.15
2023-05-29T03:01:19.967Z,15.11
2023-05-29T03:02:20.139Z,15.11
2023-05-29T03:03:20.341Z,15.04
2023-05-29T03:04:20.417Z,15.04
2023-05-29T03:05:20.602Z,15.11
2023-05-29T03:06:20.762Z,15.11
2023-05-29T03:07:20.927Z,15.15
2023-05-29T03:08:21.091Z,15.15
2023-05-29T03:09:21.237Z,15.17
2023-05-29T03:10:21.449Z,15.18
2023-05-29T03:11:21.575Z,15.21
2023-05-29T03:12:21.836Z,15.22
2023-05-29T03:13:21.911Z,15.15
2023-05-29T03:14:22.074Z,15.19
2023-05-29T03:15:22.241Z,15.21
2023-05-29T03:16:22.429Z,15.23
2023-05-29T03:17:22.638Z,15.19
2023-05-29T03:18:22.730Z,15.15
2023-05-29T03:19:22.892Z,15.15
2023-05-29T03:20:23.094Z,15.12
2023-05-29T03:21:23.223Z,15.12
2023-05-29T03:22:23.404Z,15.14
2023-05-29T03:23:25.991Z,15.15
2023-05-29T03:24:23.724Z,15.17
2023-05-29T03:25:23.895Z,15.17
2023-05-29T03:26:24.040Z,15.09
2023-05-29T03:27:24.223Z,15.11
2023-05-29T03:28:24.388Z,15.11
2023-05-29T03:29:24.556Z,15.17
2023-05-29T03:30:24.735Z,15.11
2023-05-29T03:31:24.902Z,15.18
2023-05-29T03:32:25.080Z,15.15
2023-05-29T03:33:25.313Z,15.18
2023-05-29T03:34:25.404Z,15.09
2023-05-29T03:35:25.585Z,15.09
2023-05-29T03:36:25.743Z,15.06
2023-05-29T03:37:25.901Z,15.09
2023-05-29T03:38:26.660Z,15.05
2023-05-29T03:39:26.241Z,14.94
2023-05-29T03:40:26.403Z,15.06
2023-05-29T03:41:26.579Z,14.97
2023-05-29T03:42:26.755Z,14.92
2023-05-29T03:43:26.916Z,14.94
2023-05-29T03:44:27.099Z,14.99
2023-05-29T03:45:28.104Z,14.98
2023-05-29T03:46:27.420Z,14.98
2023-05-29T03:47:27.624Z,14.99
2023-05-29T03:48:27.805Z,14.87
2023-05-29T03:49:27.980Z,14.84
2023-05-29T03:50:28.101Z,14.77
2023-05-29T03:51:28.263Z,14.87
2023-05-29T03:52:28.504Z,14.91
2023-05-29T03:53:28.617Z,14.95
2023-05-29T03:54:28.780Z,14.97
2023-05-29T03:55:29.046Z,14.94
2023-05-29T03:56:29.125Z,14.92
2023-05-29T03:57:29.298Z,14.94
2023-05-29T03:58:29.461Z,14.95
2023-05-29T03:59:29.624Z,14.80
2023-05-29T04:00:29.903Z,14.88
2023-05-29T04:01:30.060Z,14.88
2023-05-29T04:02:30.411Z,14.91
2023-05-29T04:03:30.666Z,14.91
2023-05-29T04:04:31.223Z,14.80
2023-05-29T04:05:30.959Z,14.81
2023-05-29T04:06:31.195Z,14.77
2023-05-29T04:07:31.432Z,14.86
2023-05-29T04:08:31.670Z,14.83
2023-05-29T04:09:31.891Z,14.83
2023-05-29T04:10:32.155Z,14.80
2023-05-29T04:11:32.363Z,14.86
2023-05-29T04:12:32.582Z,14.90
2023-05-29T04:13:32.807Z,14.92
2023-05-29T04:14:33.034Z,14.95
2023-05-29T04:15:33.246Z,14.98
2023-05-29T04:16:33.496Z,15.01
2023-05-29T04:17:33.744Z,15.02
2023-05-29T04:18:33.918Z,14.99
2023-05-29T04:19:34.121Z,14.98
2023-05-29T04:20:34.390Z,15.01
2023-05-29T04:21:34.552Z,14.95
2023-05-29T04:22:34.764Z,14.97
2023-05-29T04:23:34.997Z,15.01
2023-05-29T04:24:35.203Z,14.98
2023-05-29T04:25:35.609Z,14.98
2023-05-29T04:26:35.667Z,14.95
2023-05-29T04:27:36.602Z,14.98
2023-05-29T04:28:36.132Z,14.98
2023-05-29T04:29:36.360Z,14.97
2023-05-29T04:30:36.726Z,15.04
2023-05-29T04:31:37.712Z,15.04
2023-05-29T04:32:37.070Z,15.05
2023-05-29T04:33:37.283Z,15.06
2023-05-29T04:34:37.530Z,14.90
2023-05-29T04:35:37.763Z,14.76
2023-05-29T04:36:37.997Z,14.87
2023-05-29T04:37:38.224Z,14.90
2023-05-29T04:38:38.454Z,14.94
2023-05-29T04:39:38.753Z,14.98
2023-05-29T04:40:38.849Z,14.73
2023-05-29T04:41:39.059Z,14.78
2023-05-29T04:42:39.218Z,14.63
2023-05-29T04:43:39.434Z,14.71
2023-05-29T04:44:39.677Z,14.76
2023-05-29T04:45:39.870Z,14.83
2023-05-29T04:46:40.147Z,14.86
2023-05-29T04:47:40.350Z,14.90
2023-05-29T04:48:40.555Z,14.83
2023-05-29T04:49:40.762Z,14.87
2023-05-29T04:50:41.070Z,14.90
2023-05-29T04:51:41.220Z,14.92
2023-05-29T04:52:41.445Z,14.99
2023-05-29T04:53:41.673Z,14.90
2023-05-29T04:54:42.610Z,15.04
2023-05-29T04:55:42.128Z,15.09
2023-05-29T04:56:42.328Z,15.14
2023-05-29T04:57:42.484Z,15.18
2023-05-29T04:58:42.699Z,15.18
2023-05-29T04:59:43.028Z,15.18
2023-05-29T05:00:43.129Z,15.22
2023-05-29T05:01:43.423Z,15.25
2023-05-29T05:02:43.608Z,15.26
2023-05-29T05:03:43.833Z,15.23
2023-05-29T05:04:44.022Z,15.31
2023-05-29T05:05:44.254Z,15.33
2023-05-29T05:06:44.628Z,15.38
2023-05-29T05:07:44.684Z,15.42
2023-05-29T05:08:44.903Z,15.46
2023-05-29T05:09:45.129Z,15.49
2023-05-29T05:10:45.335Z,15.42
2023-05-29T05:11:45.539Z,15.23
2023-05-29T05:12:46.137Z,15.31
2023-05-29T05:13:45.992Z,15.32
2023-05-29T05:14:46.219Z,15.22
2023-05-29T05:15:46.414Z,15.18
2023-05-29T05:16:46.779Z,15.18
2023-05-29T05:17:46.774Z,14.99
2023-05-29T05:18:47.125Z,14.86
2023-05-29T05:19:47.115Z,14.88
2023-05-29T05:20:47.416Z,14.86
2023-05-29T05:21:47.462Z,14.49
2023-05-29T05:22:47.645Z,14.56
2023-05-29T05:23:57.253Z,14.62
2023-05-29T05:24:49.000Z,14.70
2023-05-29T05:25:48.158Z,14.69
2023-05-29T05:26:49.125Z,14.67
2023-05-29T05:27:48.590Z,14.67
2023-05-29T05:28:48.712Z,14.71
2023-05-29T05:29:48.884Z,14.70
2023-05-29T05:30:49.085Z,14.63
2023-05-29T05:31:49.260Z,14.77
2023-05-29T05:32:49.421Z,14.88
2023-05-29T05:33:49.566Z,14.92
2023-05-29T05:34:49.741Z,14.97
2023-05-29T05:35:49.977Z,14.95
2023-05-29T05:36:50.124Z,14.98
2023-05-29T05:37:50.229Z,15.01
2023-05-29T05:38:50.384Z,15.05
2023-05-29T05:39:50.615Z,14.98
2023-05-29T05:40:50.732Z,15.08
2023-05-29T05:41:50.938Z,15.17
2023-05-29T05:42:51.644Z,15.22
2023-05-29T05:43:52.148Z,15.28
2023-05-29T05:44:51.595Z,15.36
2023-05-29T05:45:51.829Z,15.33
2023-05-29T05:46:51.998Z,15.43
2023-05-29T05:47:52.209Z,15.43
2023-05-29T05:48:52.408Z,15.50
2023-05-29T05:49:52.646Z,15.58
2023-05-29T05:50:52.965Z,15.58
2023-05-29T05:51:53.011Z,15.66
2023-05-29T05:52:53.218Z,15.73
2023-05-29T05:53:53.421Z,15.77
2023-05-29T05:54:53.683Z,15.78
2023-05-29T05:55:53.817Z,15.87
2023-05-29T05:56:54.000Z,15.85
2023-05-29T05:57:54.193Z,15.80
2023-05-29T05:58:54.389Z,15.88
2023-05-29T05:59:54.571Z,15.95
2023-05-29T06:00:54.925Z,15.98
2023-05-29T06:01:54.985Z,16.01
2023-05-29T06:02:55.267Z,16.08
2023-05-29T06:03:55.481Z,16.07
2023-05-29T06:04:55.568Z,16.05
2023-05-29T06:05:55.729Z,16.09
2023-05-29T06:06:55.908Z,15.70
2023-05-29T06:07:56.101Z,15.75
2023-05-29T06:08:56.335Z,15.78
2023-05-29T06:09:56.500Z,15.81
2023-05-29T06:10:56.846Z,15.88
2023-05-29T06:11:56.862Z,15.95
2023-05-29T06:12:58.642Z,16.02
2023-05-29T06:13:57.204Z,16.12
2023-05-29T06:14:57.383Z,16.16
2023-05-29T06:15:57.576Z,16.20
2023-05-29T06:16:57.726Z,16.27
2023-05-29T06:17:58.166Z,16.35
2023-05-29T06:18:58.078Z,16.40
2023-05-29T06:19:58.237Z,16.40
2023-05-29T06:20:58.693Z,16.42
2023-05-29T06:21:58.580Z,16.49
2023-05-29T06:22:58.831Z,16.52
2023-05-29T06:23:58.916Z,16.54
2023-05-29T06:24:59.150Z,16.56
2023-05-29T06:25:59.230Z,16.49
2023-05-29T06:26:59.600Z,16.57
2023-05-29T06:27:59.632Z,16.64
2023-05-29T06:28:59.779Z,16.60
2023-05-29T06:29:59.936Z,16.70
2023-05-29T06:31:00.110Z,16.77
2023-05-29T06:32:00.246Z,16.63
2023-05-29T06:33:00.506Z,16.72
2023-05-29T06:34:00.626Z,16.60
2023-05-29T06:35:00.809Z,16.75
2023-05-29T06:36:03.497Z,16.74
2023-05-29T06:37:01.142Z,16.60
2023-05-29T06:38:01.230Z,16.64
2023-05-29T06:39:01.369Z,16.77
2023-05-29T06:40:01.533Z,16.74
2023-05-29T06:41:01.657Z,16.68
2023-05-29T06:42:01.797Z,16.82
2023-05-29T06:43:02.021Z,16.80
2023-05-29T06:44:02.070Z,16.82
2023-05-29T06:45:02.208Z,16.92
2023-05-29T06:46:02.345Z,16.98
2023-05-29T06:47:02.508Z,17.04
2023-05-29T06:48:02.652Z,16.98
2023-05-29T06:49:04.288Z,16.92
2023-05-29T06:50:03.647Z,17.06
2023-05-29T06:51:02.997Z,17.04
2023-05-29T06:52:03.120Z,17.13
2023-05-29T06:53:03.256Z,17.18
2023-05-29T06:54:03.375Z,17.23
2023-05-29T06:55:03.501Z,17.13
2023-05-29T06:56:03.634Z,17.23
2023-05-29T06:57:11.191Z,17.32
2023-05-29T06:58:04.892Z,17.36
2023-05-29T06:59:03.992Z,17.39
2023-05-29T07:00:04.121Z,17.41
2023-05-29T07:01:06.955Z,17.49
2023-05-29T07:02:04.417Z,17.40
2023-05-29T07:03:04.713Z,17.53
2023-05-29T07:04:04.720Z,17.53
2023-05-29T07:05:04.703Z,17.54
2023-05-29T07:06:04.824Z,17.51
2023-05-29T07:07:04.929Z,17.64
2023-05-29T07:08:05.041Z,17.71
2023-05-29T07:09:05.157Z,17.63
2023-05-29T07:10:05.287Z,17.57
2023-05-29T07:11:05.385Z,17.44
2023-05-29T07:12:05.498Z,17.66
2023-05-29T07:13:05.750Z,17.74
2023-05-29T07:14:05.726Z,17.85
2023-05-29T07:15:05.841Z,17.89
2023-05-29T07:16:13.606Z,17.95
2023-05-29T07:17:07.093Z,17.67
2023-05-29T07:18:06.187Z,17.91
2023-05-29T07:19:06.661Z,17.96
2023-05-29T07:20:06.512Z,18.05
2023-05-29T07:21:06.534Z,18.03
2023-05-29T07:22:06.601Z,18.09
2023-05-29T07:23:06.707Z,18.08
2023-05-29T07:24:06.838Z,18.15
2023-05-29T07:25:06.943Z,18.19
2023-05-29T07:26:07.030Z,17.89
2023-05-29T07:27:07.153Z,18.09
2023-05-29T07:28:14.619Z,18.27
2023-05-29T07:29:08.373Z,18.41
2023-05-29T07:30:07.477Z,18.51
2023-05-29T07:31:08.572Z,18.44
2023-05-29T07:32:07.698Z,18.61
2023-05-29T07:33:07.795Z,18.61
2023-05-29T07:34:07.888Z,18.57
2023-05-29T07:35:07.997Z,18.54
2023-05-29T07:36:08.110Z,18.62
2023-05-29T07:37:08.236Z,18.78
2023-05-29T07:38:08.341Z,18.58
2023-05-29T07:39:08.424Z,18.78
2023-05-29T07:40:08.553Z,18.91
2023-05-29T07:41:08.662Z,18.96
2023-05-29T07:42:08.748Z,18.95
2023-05-29T07:43:08.851Z,19.12
2023-05-29T07:44:08.947Z,19.24
2023-05-29T07:45:09.040Z,19.30
2023-05-29T07:46:09.241Z,18.85
2023-05-29T07:47:09.232Z,18.95
2023-05-29T07:48:09.403Z,19.05
2023-05-29T07:49:09.443Z,18.98
2023-05-29T07:50:09.540Z,19.17
2023-05-29T07:51:09.640Z,19.37
2023-05-29T07:52:09.732Z,19.44
2023-05-29T07:53:09.846Z,19.53
2023-05-29T07:54:09.992Z,19.61
2023-05-29T07:55:09.996Z,19.71
2023-05-29T07:56:10.105Z,19.60
2023-05-29T07:57:10.210Z,19.61
2023-05-29T07:58:11.863Z,19.72
2023-05-29T07:59:10.437Z,19.58
2023-05-29T08:00:10.564Z,19.67
2023-05-29T08:01:10.642Z,19.85
2023-05-29T08:02:10.735Z,19.74
2023-05-29T08:03:10.937Z,19.95
2023-05-29T08:04:10.941Z,20.05
2023-05-29T08:05:11.046Z,20.12
2023-05-29T08:06:11.081Z,20.24
2023-05-29T08:07:11.171Z,20.21
2023-05-29T08:08:11.281Z,20.33
2023-05-29T08:09:11.405Z,20.21
2023-05-29T08:10:11.409Z,20.34
2023-05-29T08:11:11.489Z,20.12
2023-05-29T08:12:11.565Z,20.27
2023-05-29T08:13:11.665Z,20.28
2023-05-29T08:14:11.721Z,20.23
2023-05-29T08:15:11.805Z,20.27
2023-05-29T08:16:11.980Z,20.37
2023-05-29T08:17:11.984Z,20.54
2023-05-29T08:18:12.100Z,20.64
2023-05-29T08:19:12.131Z,20.58
2023-05-29T08:20:12.257Z,20.65
2023-05-29T08:21:12.312Z,20.56
2023-05-29T08:22:12.372Z,20.83
2023-05-29T08:23:13.177Z,20.93
2023-05-29T08:24:12.589Z,20.76
2023-05-29T08:25:12.599Z,20.92
2023-05-29T08:26:12.689Z,21.05
2023-05-29T08:27:12.759Z,20.86
2023-05-29T08:28:12.830Z,20.97
2023-05-29T08:29:12.904Z,21.14
2023-05-29T08:30:12.986Z,20.99
2023-05-29T08:31:13.114Z,21.26
2023-05-29T08:32:13.148Z,21.34
2023-05-29T08:33:13.228Z,21.36
2023-05-29T08:34:13.255Z,21.49
2023-05-29T08:35:13.369Z,21.57
2023-05-29T08:36:13.369Z,21.64
2023-05-29T08:37:13.451Z,21.64
2023-05-29T08:38:13.498Z,21.55
2023-05-29T08:39:13.553Z,21.69
2023-05-29T08:40:13.614Z,21.66
2023-05-29T08:41:13.679Z,21.72
2023-05-29T08:42:13.754Z,21.81
2023-05-29T08:43:13.795Z,21.92
2023-05-29T08:44:13.875Z,21.93
2023-05-29T08:45:13.929Z,21.85
2023-05-29T08:46:14.005Z,21.71
2023-05-29T08:47:14.066Z,21.83
2023-05-29T08:48:14.184Z,21.61
2023-05-29T08:49:14.191Z,21.68
2023-05-29T08:50:14.269Z,21.61
2023-05-29T08:51:14.332Z,21.78
2023-05-29T08:52:14.406Z,21.76
2023-05-29T08:53:14.463Z,21.75
2023-05-29T08:54:15.182Z,21.82
2023-05-29T08:55:14.610Z,21.91
2023-05-29T08:56:23.154Z,22.06
2023-05-29T08:57:15.728Z,21.89
2023-05-29T08:58:14.794Z,21.96
2023-05-29T08:59:14.814Z,21.81
2023-05-29T09:00:14.876Z,21.99
2023-05-29T09:01:14.962Z,21.91
2023-05-29T09:02:15.023Z,22.14
2023-05-29T09:03:15.207Z,22.00
2023-05-29T09:04:15.222Z,21.99
2023-05-29T09:05:15.217Z,21.83
2023-05-29T09:06:15.265Z,21.89
2023-05-29T09:07:15.319Z,22.07
2023-05-29T09:08:15.415Z,21.91
2023-05-29T09:09:15.497Z,22.07
2023-05-29T09:10:15.597Z,22.09
2023-05-29T09:11:16.230Z,22.21
2023-05-29T09:12:15.791Z,22.27
2023-05-29T09:13:15.973Z,22.28
2023-05-29T09:14:16.075Z,22.38
2023-05-29T09:15:16.144Z,22.38
2023-05-29T09:16:16.282Z,22.38
2023-05-29T09:17:16.392Z,22.50
2023-05-29T09:18:16.488Z,22.45
2023-05-29T09:19:16.563Z,22.54
2023-05-29T09:20:16.672Z,22.56
2023-05-29T09:21:16.733Z,22.65
2023-05-29T09:22:16.869Z,22.71
2023-05-29T09:23:16.918Z,22.85
2023-05-29T09:24:16.925Z,22.97
2023-05-29T09:25:17.026Z,22.96
2023-05-29T09:26:17.058Z,22.51
2023-05-29T09:27:17.139Z,22.52
2023-05-29T09:28:18.139Z,22.72
2023-05-29T09:29:18.275Z,22.87
2023-05-29T09:30:17.320Z,23.03
2023-05-29T09:31:17.374Z,22.71
2023-05-29T09:32:17.404Z,22.90
2023-05-29T09:33:17.452Z,22.97
2023-05-29T09:34:17.509Z,22.97
2023-05-29T09:35:17.520Z,23.09
2023-05-29T09:36:17.554Z,23.10
2023-05-29T09:37:18.455Z,23.07
2023-05-29T09:38:29.074Z,23.17
2023-05-29T09:39:18.645Z,23.11
2023-05-29T09:40:17.669Z,22.99
2023-05-29T09:41:17.696Z,23.24
2023-05-29T09:42:17.722Z,23.34
2023-05-29T09:43:17.776Z,23.10
2023-05-29T09:44:17.807Z,23.23
2023-05-29T09:45:17.819Z,23.32
2023-05-29T09:46:17.874Z,23.54
2023-05-29T09:47:17.871Z,23.47
2023-05-29T09:48:17.910Z,23.20
2023-05-29T09:49:17.930Z,23.17
2023-05-29T09:50:17.973Z,23.49
2023-05-29T09:51:17.996Z,23.49
2023-05-29T09:52:18.044Z,23.58
2023-05-29T09:53:18.103Z,23.38
2023-05-29T09:54:18.323Z,23.56
2023-05-29T09:55:18.412Z,23.49
2023-05-29T09:56:18.579Z,23.58
2023-05-29T09:57:18.820Z,23.62
2023-05-29T09:58:18.925Z,23.56
2023-05-29T09:59:20.311Z,23.44
2023-05-29T10:00:19.225Z,23.59
2023-05-29T10:01:19.276Z,23.69
2023-05-29T10:02:19.296Z,23.76
2023-05-29T10:03:19.457Z,23.83
2023-05-29T10:04:19.431Z,23.80
2023-05-29T10:05:19.494Z,23.86
2023-05-29T10:06:19.611Z,23.70
2023-05-29T10:07:19.623Z,24.00
2023-05-29T10:08:19.721Z,23.99
2023-05-29T10:09:20.720Z,23.80
2023-05-29T10:10:19.891Z,24.03
2023-05-29T10:11:19.976Z,24.16
2023-05-29T10:12:20.047Z,24.27
2023-05-29T10:13:20.172Z,24.27
2023-05-29T10:14:20.228Z,24.24
2023-05-29T10:15:20.274Z,24.25
2023-05-29T10:16:20.431Z,24.23
2023-05-29T10:17:20.422Z,24.24
2023-05-29T10:18:20.483Z,24.34
2023-05-29T10:19:20.537Z,24.44
2023-05-29T10:20:20.621Z,24.35
2023-05-29T10:21:20.742Z,24.28
2023-05-29T10:22:20.811Z,24.11
2023-05-29T10:23:20.816Z,24.25
2023-05-29T10:24:20.875Z,24.14
2023-05-29T10:25:20.949Z,24.38
2023-05-29T10:26:21.031Z,24.31
2023-05-29T10:27:21.779Z,24.32
2023-05-29T10:28:21.178Z,24.30
2023-05-29T10:29:21.211Z,24.20
2023-05-29T10:30:21.309Z,24.32
2023-05-29T10:31:21.315Z,24.21
2023-05-29T10:32:21.519Z,24.38
2023-05-29T10:33:21.420Z,24.39
2023-05-29T10:34:21.445Z,24.58
2023-05-29T10:35:21.555Z,24.52
2023-05-29T10:36:21.526Z,24.52
2023-05-29T10:37:21.558Z,24.55
2023-05-29T10:38:21.602Z,24.69
2023-05-29T10:39:21.638Z,24.79
2023-05-29T10:40:21.660Z,24.91
2023-05-29T10:41:21.699Z,24.82
2023-05-29T10:42:21.710Z,24.91
2023-05-29T10:43:21.736Z,25.00
2023-05-29T10:44:21.780Z,24.83
2023-05-29T10:45:21.798Z,25.00
2023-05-29T10:46:21.834Z,25.06
2023-05-29T10:47:22.726Z,24.91
2023-05-29T10:48:21.874Z,24.93
2023-05-29T10:49:21.937Z,25.17
2023-05-29T10:50:21.991Z,25.10
2023-05-29T10:51:21.992Z,25.32
2023-05-29T10:52:22.051Z,25.21
2023-05-29T10:53:22.044Z,25.39
2023-05-29T10:54:23.322Z,25.32
2023-05-29T10:55:22.109Z,25.34
2023-05-29T10:56:22.176Z,25.27
2023-05-29T10:57:22.165Z,25.45
2023-05-29T10:58:22.187Z,25.41
2023-05-29T10:59:22.175Z,25.52
2023-05-29T11:00:22.286Z,25.30
2023-05-29T11:01:22.247Z,25.35
2023-05-29T11:02:22.251Z,25.61
2023-05-29T11:03:22.332Z,25.73
2023-05-29T11:04:22.260Z,25.72
2023-05-29T11:05:22.277Z,25.90
2023-05-29T11:06:22.270Z,25.73
2023-05-29T11:07:22.297Z,25.32
2023-05-29T11:08:22.318Z,25.18
2023-05-29T11:09:22.359Z,25.07
2023-05-29T11:10:22.393Z,25.00
2023-05-29T11:11:22.428Z,25.34
2023-05-29T11:12:22.473Z,25.17
2023-05-29T11:13:23.251Z,25.15
2023-05-29T11:14:22.530Z,25.46
2023-05-29T11:15:22.550Z,25.32
2023-05-29T11:16:22.562Z,25.48
2023-05-29T11:17:22.620Z,25.55
2023-05-29T11:18:22.637Z,25.56
2023-05-29T11:19:22.647Z,25.72
2023-05-29T11:20:22.686Z,25.65
2023-05-29T11:21:22.663Z,25.69
2023-05-29T11:22:22.687Z,25.93
2023-05-29T11:23:22.756Z,25.82
2023-05-29T11:24:22.690Z,25.75
2023-05-29T11:25:22.715Z,25.96
2023-05-29T11:26:22.715Z,26.10
2023-05-29T11:27:22.732Z,26.13
2023-05-29T11:28:22.756Z,26.10
2023-05-29T11:29:23.250Z,26.11
2023-05-29T11:30:22.756Z,26.24
2023-05-29T11:31:22.790Z,26.30
2023-05-29T11:32:22.756Z,26.04
2023-05-29T11:33:22.767Z,26.43
2023-05-29T11:34:22.766Z,26.34
2023-05-29T11:35:22.753Z,26.36
2023-05-29T11:36:23.744Z,26.36
2023-05-29T11:37:22.785Z,26.23
2023-05-29T11:38:22.792Z,26.20
2023-05-29T11:39:23.743Z,26.68
2023-05-29T11:40:23.749Z,26.77
2023-05-29T11:41:22.864Z,26.75
2023-05-29T11:42:23.257Z,26.91
2023-05-29T11:43:22.955Z,27.04
2023-05-29T11:44:22.954Z,26.98
2023-05-29T11:45:22.991Z,26.82
2023-05-29T11:46:23.046Z,26.85
2023-05-29T11:47:23.156Z,27.01
2023-05-29T11:48:23.199Z,27.00
2023-05-29T11:49:23.202Z,27.10
2023-05-29T11:50:23.243Z,27.21
2023-05-29T11:51:23.267Z,27.18
2023-05-29T11:52:23.284Z,27.21
2023-05-29T11:53:24.262Z,27.38
2023-05-29T11:54:24.268Z,27.62
2023-05-29T11:55:23.332Z,27.72
2023-05-29T11:56:23.313Z,27.77
2023-05-29T11:57:23.368Z,27.74
2023-05-29T11:58:23.303Z,27.84
2023-05-29T11:59:23.287Z,27.93
2023-05-29T12:00:23.254Z,28.05
2023-05-29T12:01:23.760Z,28.17
2023-05-29T12:02:23.243Z,28.03
2023-05-29T12:03:23.225Z,28.17
2023-05-29T12:04:23.179Z,28.35
2023-05-29T12:05:23.242Z,28.52
2023-05-29T12:06:23.110Z,28.14
2023-05-29T12:07:23.079Z,28.55
2023-05-29T12:08:23.054Z,28.58
2023-05-29T12:09:23.006Z,28.41
2023-05-29T12:10:22.989Z,28.36
2023-05-29T12:11:22.944Z,28.51
2023-05-29T12:12:22.906Z,28.43
2023-05-29T12:13:23.073Z,28.58
2023-05-29T12:14:22.885Z,28.87
2023-05-29T12:15:22.927Z,28.71
2023-05-29T12:16:22.930Z,28.97
2023-05-29T12:17:23.016Z,29.05
2023-05-29T12:18:22.956Z,29.05
2023-05-29T12:19:22.938Z,29.04
2023-05-29T12:20:22.944Z,29.38
2023-05-29T12:21:22.904Z,29.26
2023-05-29T12:22:22.881Z,29.31
2023-05-29T12:23:23.809Z,29.45
2023-05-29T12:24:26.937Z,29.29
2023-05-29T12:25:23.790Z,29.42
2023-05-29T12:26:23.272Z,29.67
2023-05-29T12:27:22.671Z,29.69
2023-05-29T12:28:22.603Z,29.57
2023-05-29T12:29:22.547Z,29.46
2023-05-29T12:30:32.299Z,29.42
2023-05-29T12:31:23.460Z,29.49
2023-05-29T12:32:22.451Z,29.56
2023-05-29T12:33:22.331Z,29.62
2023-05-29T12:34:22.249Z,30.05
2023-05-29T12:35:22.179Z,29.79
2023-05-29T12:36:22.110Z,29.63
2023-05-29T12:37:22.776Z,29.88
2023-05-29T12:38:21.984Z,29.88
2023-05-29T12:39:21.998Z,29.64
2023-05-29T12:40:21.867Z,29.74
2023-05-29T12:41:22.046Z,29.91
2023-05-29T12:42:24.422Z,29.73
2023-05-29T12:43:22.230Z,30.32
2023-05-29T12:44:22.080Z,29.97
2023-05-29T12:45:22.021Z,30.08
2023-05-29T12:46:21.987Z,30.15
2023-05-29T12:47:21.935Z,30.40
2023-05-29T12:48:21.825Z,30.67
2023-05-29T12:49:21.870Z,30.50
2023-05-29T12:50:21.703Z,30.29
2023-05-29T12:51:21.644Z,30.46
2023-05-29T12:52:21.568Z,30.74
2023-05-29T12:53:21.786Z,30.80
2023-05-29T12:54:21.533Z,31.04